Flight Track Log - Related Links

Times and Time Zones

All times are in EDT time to prevent confusion due to time zone crossing. See the JBU917 flight status page for this flight to view local times or setup timezone preferences in your user account.


Time Position Orientation Groundspeed Altitude Reporting Facility
EDT Latitude Longitude Course Direction KTS MPH feet Rate Location/Type
Tue 08:47:29 PM 40.6333 -73.7167 312° West 179 206 2,400  Level New York TRACON
Tue 08:48:29 PM 40.6667 -73.6500 57° Northeast 243 280 4,800 2,750 Climbing New York TRACON
Tue 08:49:00 PM 40.8789 -74.2390 306° West  Level FlightAware Approximate
Tue 08:49:29 PM 40.7167 -73.5833 45° Northeast 276 318 7,900  Level New York TRACON
Tue 08:50:00 PM 40.9440 -74.3583 306° West  Level FlightAware Approximate
Tue 08:50:29 PM 40.7833 -73.5167 37° Northeast 286 329 10,800  Level New York TRACON
Tue 08:51:00 PM 41.0118 -74.4736 304° West  Level FlightAware Approximate
Tue 08:51:29 PM 40.8500 -73.5333 349° North 326 375 12,900  Level New York TRACON
Tue 08:52:00 PM 41.0734 -74.5934 312° West  Level FlightAware Approximate
Tue 08:53:16 PM 40.9581 -73.7194 308° West 400 460 16,600  Level New York Center
Tue 08:54:17 PM 41.0153 -73.8539 299° West 389 448 17,000 600 Climbing New York Center
Tue 08:55:16 PM 41.0328 -73.9756 281° West 377 434 17,800 1,300 Climbing New York Center
Tue 08:56:17 PM 41.0622 -74.1119 286° West 382 440 19,600 1,884 Climbing New York Center
Tue 08:57:17 PM 41.1058 -74.2628 291° West 392 451 21,600 1,785 Climbing New York Center
Tue 08:58:18 PM 41.1533 -74.4111 293° West 404 465 23,200 1,587 Climbing New York Center
Tue 08:59:18 PM 41.1986 -74.5625 292° West 426 490 24,800 1,438 Climbing New York Center
Tue 09:00:19 PM 41.2458 -74.7114 293° West 442 509 26,100 1,412 Climbing New York Center
Tue 09:01:17 PM 41.2925 -74.8661 292° West 448 516 27,600 1,311 Climbing New York Center
Tue 09:02:18 PM 41.3372 -75.0181 291° West 465 535 28,700 1,180 Climbing New York Center
Tue 09:03:19 PM 41.3856 -75.1786 292° West 470 541 30,000 1,289 Climbing New York Center
Tue 09:04:19 PM 41.4336 -75.3394 292° West 470 541 31,300 1,525 Climbing New York Center
Tue 09:05:17 PM 41.4794 -75.5003 291° West 470 541 33,000 1,462 Climbing New York Center
Tue 09:06:18 PM 41.5267 -75.6700 290° West 458 527 34,200 1,041 Climbing New York Center
Tue 09:07:18 PM 41.5686 -75.8089 292° West 453 521 35,100 893 Climbing New York Center
Tue 09:08:19 PM 41.6142 -75.9622 292° West 448 516 36,000 458 Climbing New York Center
Tue 09:09:16 PM 41.6592 -76.1211 291° West 453 521 36,000  Level New York Center
Tue 09:10:17 PM 41.7019 -76.2803 290° West 458 527 36,000  Level New York Center
Tue 09:11:17 PM 41.7461 -76.4450 290° West 458 527 36,000  Level New York Center
Tue 09:12:18 PM 41.7981 -76.6219 292° West 458 527 36,000  Level New York Center
Tue 09:13:17 PM 41.8419 -76.7847 290° West 458 527 36,000  Level New York Center
Tue 09:14:33 PM 41.8972 -76.9814 291° West 460 529 36,000  Level Cleveland Center
Tue 09:15:33 PM 41.9400 -77.1467 289° West 460 529 36,000  Level Cleveland Center
Tue 09:16:33 PM 41.9842 -77.3064 290° West 460 529 36,000  Level Cleveland Center
Tue 09:17:33 PM 42.0264 -77.4719 289° West 460 529 36,000  Level Cleveland Center
Tue 09:18:33 PM 42.0722 -77.6347 291° West 460 529 36,000  Level Cleveland Center
Tue 09:19:33 PM 42.1119 -77.7981 288° West 460 529 36,000  Level Cleveland Center
Tue 09:20:33 PM 42.1575 -77.9642 290° West 460 529 36,000  Level Cleveland Center
Tue 09:21:33 PM 42.2006 -78.1250 290° West 465 535 36,000  Level Cleveland Center
Tue 09:22:33 PM 42.2436 -78.2917 289° West 465 535 36,000  Level Cleveland Center
Tue 09:23:33 PM 42.2864 -78.4586 289° West 465 535 36,000  Level Cleveland Center
Tue 09:24:33 PM 42.3289 -78.6228 289° West 465 535 36,000  Level Cleveland Center
Tue 09:25:33 PM 42.3692 -78.7903 288° West 465 535 36,000  Level Cleveland Center
Tue 09:26:33 PM 42.4136 -78.9717 288° West 465 535 36,000  Level Cleveland Center
Tue 09:27:33 PM 42.4531 -79.1200 290° West 460 529 36,000  Level Cleveland Center
Tue 09:28:33 PM 42.4906 -79.2908 287° West 460 529 36,000  Level Cleveland Center
Tue 09:29:33 PM 42.5006 -79.4653 275° West 465 535 36,000  Level Cleveland Center
Tue 09:30:33 PM 42.5086 -79.6425 274° West 470 541 36,000  Level Cleveland Center
Tue 09:31:33 PM 42.5181 -79.8169 274° West 470 541 36,000  Level Cleveland Center
Tue 09:32:33 PM 42.5253 -79.9917 273° West 470 541 36,000  Level Cleveland Center
Tue 09:33:33 PM 42.5325 -80.1719 273° West 470 541 36,000  Level Cleveland Center
Tue 09:34:33 PM 42.5414 -80.3661 274° West 477 549 36,000  Level Cleveland Center
Tue 09:35:33 PM 42.5478 -80.5436 273° West 471 542 36,000  Level Cleveland Center
Tue 09:36:33 PM 42.5539 -80.7183 273° West 483 556 36,000  Level Cleveland Center
Tue 09:37:33 PM 42.5578 -80.8961 272° West 473 544 36,000  Level Cleveland Center
Tue 09:38:33 PM 42.5675 -81.0708 274° West 479 551 36,000  Level Cleveland Center
Tue 09:39:33 PM 42.5728 -81.2542 272° West 479 551 36,000  Level Cleveland Center
Tue 09:40:33 PM 42.5822 -81.4292 274° West 479 551 36,000  Level Cleveland Center
Tue 09:41:33 PM 42.6100 -81.6044 282° West 474 545 36,000  Level Cleveland Center
Tue 09:42:33 PM 42.6394 -81.7742 283° West 474 545 36,000  Level Cleveland Center
Tue 09:43:33 PM 42.6689 -81.9442 283° West 467 537 36,000  Level Cleveland Center
Tue 09:44:33 PM 42.7000 -82.1172 284° West 467 537 36,000  Level Cleveland Center
Tue 09:45:33 PM 42.7289 -82.2931 283° West 472 543 36,000  Level Cleveland Center
Tue 09:46:33 PM 42.7575 -82.4664 283° West 472 543 36,000  Level Cleveland Center
Tue 09:47:33 PM 42.7753 -82.6394 278° West 472 543 36,000  Level Cleveland Center
Tue 09:48:33 PM 42.7867 -82.8153 275° West 467 537 36,000  Level Cleveland Center
Tue 09:49:33 PM 42.7975 -82.9969 275° West 467 537 36,000  Level Cleveland Center
Tue 09:50:33 PM 42.8061 -83.1725 274° West 472 543 36,000  Level Cleveland Center
Tue 09:51:33 PM 42.8189 -83.3486 276° West 472 543 36,000  Level Cleveland Center
Tue 09:52:33 PM 42.8289 -83.5275 274° West 472 543 36,000 -350 Level Cleveland Center
Tue 09:53:33 PM 42.8392 -83.7008 275° West 472 543 35,300 -850 Descending Cleveland Center
Tue 09:54:33 PM 42.8486 -83.8797 274° West 472 543 34,300 -1,000 Descending Cleveland Center
Tue 09:55:33 PM 42.8581 -84.0586 274° West 472 543 33,300 -1,000 Descending Cleveland Center
Tue 09:56:33 PM 42.8669 -84.2378 274° West 477 549 32,300 -513 Descending Cleveland Center
Tue 09:58:05 PM 42.8806 -84.4906 274° West 475 547 32,000 -117 Descending Chicago Center
Tue 09:59:07 PM 42.8761 -84.6694 268° West 480 552 32,000  Level Chicago Center
Tue 10:00:08 PM 42.8564 -84.8458 261° West 472 543 32,000  Level Chicago Center
Tue 10:01:09 PM 42.8375 -85.0244 262° West 469 540 32,000  Level Chicago Center
Tue 10:02:11 PM 42.8153 -85.2325 262° West 471 542 32,000  Level Chicago Center
Tue 10:03:12 PM 42.7967 -85.4097 262° West 471 542 32,000 -984 Level Chicago Center
Tue 10:04:13 PM 42.7725 -85.5839 259° West 469 540 30,000 -2,146 Descending Chicago Center
Tue 10:05:15 PM 42.7408 -85.7511 256° West 458 527 27,600 -2,341 Descending Chicago Center
Tue 10:06:16 PM 42.7114 -85.9128 256° West 444 511 25,200 -2,262 Descending Chicago Center
Tue 10:07:17 PM 42.6831 -86.0683 256° West 428 493 23,000 -2,146 Descending Chicago Center
Tue 10:08:19 PM 42.6558 -86.2178 256° West 410 472 20,800 -1,463 Descending Chicago Center
Tue 10:09:20 PM 42.6292 -86.3600 256° West 392 451 20,000 -393 Descending Chicago Center
Tue 10:10:21 PM 42.6017 -86.5028 255° West 390 449 20,000 -49 Level Chicago Center
Tue 10:11:22 PM 42.5761 -86.6458 256° West 391 450 19,900 -1,122 Descending Chicago Center
Tue 10:12:24 PM 42.5408 -86.8058 253° West 385 443 17,700 -1,902 Descending Chicago Center
Tue 10:13:25 PM 42.5100 -86.9172 249° West 375 432 16,000 -1,820 Descending Chicago Center
Tue 10:14:26 PM 42.4744 -87.0442 249° West 365 420 14,000 -2,066 Descending Chicago Center
Tue 10:15:27 PM 42.4328 -87.1939 249° West 356 410 11,800 -1,951 Descending Chicago Center
Tue 10:16:29 PM 42.3994 -87.3128 249° West 341 392 10,000 -878 Descending Chicago Center
Tue 10:17:30 PM 42.3694 -87.4203 249° West 335 386 10,000  Level Chicago Center
Tue 10:18:31 PM 42.3350 -87.5386 249° West 340 391 10,000  Level Chicago Center
Tue 10:19:32 PM 42.2464 -87.6325 218° Southwest 337 388 10,000 -49 Level Chicago Center
Tue 10:20:33 PM 42.1767 -87.7072 218° Southwest 325 374 9,900 -829 Descending Chicago Center
Tue 10:21:35 PM 42.1131 -87.7731 218° Southwest 293 337 8,300 -1,660 Descending Chicago Center
Tue 10:22:07 PM 42.0833 -87.8333 236° Southwest 286 329 7,300 -897 Descending Chicago TRACON
Tue 10:23:02 PM 42.0667 -87.9167 255° West 283 326 7,000 -157 Descending Chicago TRACON
Tue 10:24:02 PM 42.0500 -88.0167 257° West 253 291 7,000 -550 Level Chicago TRACON
Tue 10:25:02 PM 42.0500 -88.1000 270° West 227 261 5,900 -1,113 Descending Chicago TRACON
Tue 10:25:39 PM 42.0378 -88.1339 244° Southwest 230 265 5,200 -1,224 Descending Chicago Center
Tue 10:26:40 PM 41.9833 -88.1189 168° South 235 270 3,900 -1,281 Descending Chicago Center
Tue 10:27:08 PM 41.9667 -88.0667 113° Southeast 208 239 3,300 -1,364 Descending Chicago TRACON
Tue 10:28:08 PM 41.9667 -88.0000 90° East 167 192 1,900 -1,100 Descending Chicago TRACON
Tue 10:29:08 PM 41.9667 -87.9500 90° East 129 148 1,100 -800 Descending Chicago TRACON
Tue 10:31:00 PM 41.9667 -87.9000 90° East  Level FlightAware Approximate

Login

Don't have an account? Register now (free) for customized features, flight alerts, and more!